createdAt,value
2018-05-05T00:00:37.035Z,20.60
2018-05-05T00:01:37.030Z,18.10
2018-05-05T00:02:37.022Z,18.50
2018-05-05T00:03:37.019Z,17.90
2018-05-05T00:04:37.012Z,18.10
2018-05-05T00:05:37.004Z,17.60
2018-05-05T00:06:36.997Z,19.20
2018-05-05T00:07:36.999Z,19.30
2018-05-05T00:08:36.984Z,20.30
2018-05-05T00:09:36.979Z,19.10
2018-05-05T00:10:36.971Z,19.30
2018-05-05T00:11:36.965Z,19.20
2018-05-05T00:12:36.959Z,18.40
2018-05-05T00:13:36.952Z,20.00
2018-05-05T00:14:36.944Z,19.70
2018-05-05T00:15:36.940Z,18.60
2018-05-05T00:16:36.932Z,19.20
2018-05-05T00:17:36.924Z,19.40
2018-05-05T00:18:36.921Z,21.20
2018-05-05T00:19:36.910Z,20.30
2018-05-05T00:20:36.913Z,20.80
2018-05-05T00:21:36.898Z,21.00
2018-05-05T00:22:36.896Z,20.60
2018-05-05T00:23:36.888Z,21.80
2018-05-05T00:24:36.881Z,22.20
2018-05-05T00:25:36.875Z,22.80
2018-05-05T00:26:36.869Z,20.90
2018-05-05T00:27:36.861Z,21.80
2018-05-05T00:28:36.859Z,22.80
2018-05-05T00:29:36.846Z,21.50
2018-05-05T00:30:36.841Z,21.30
2018-05-05T00:31:36.836Z,23.00
2018-05-05T00:32:36.828Z,22.10
2018-05-05T00:33:36.820Z,22.20
2018-05-05T00:34:36.816Z,22.80
2018-05-05T00:35:36.811Z,24.10
2018-05-05T00:36:36.800Z,22.80
2018-05-05T00:37:36.796Z,23.90
2018-05-05T00:38:36.788Z,22.90
2018-05-05T00:39:36.781Z,21.70
2018-05-05T00:40:36.775Z,22.20
2018-05-05T00:41:36.770Z,21.90
2018-05-05T00:42:36.766Z,22.20
2018-05-05T00:43:36.756Z,21.30
2018-05-05T00:44:36.757Z,22.30
2018-05-05T00:45:36.744Z,21.10
2018-05-05T00:46:36.738Z,20.90
2018-05-05T00:47:36.731Z,20.80
2018-05-05T00:48:36.726Z,20.60
2018-05-05T00:49:36.721Z,20.40
2018-05-05T00:50:36.778Z,20.90
2018-05-05T00:51:36.709Z,20.40
2018-05-05T00:52:36.700Z,19.00
2018-05-05T00:53:36.698Z,18.80
2018-05-05T00:54:36.689Z,18.50
2018-05-05T00:55:36.682Z,19.70
2018-05-05T00:56:36.674Z,20.40
2018-05-05T00:57:36.672Z,20.90
2018-05-05T00:58:36.664Z,21.20
2018-05-05T00:59:36.658Z,20.90
2018-05-05T01:00:36.651Z,20.60
2018-05-05T01:01:36.645Z,18.80
2018-05-05T01:02:36.636Z,18.10
2018-05-05T01:03:36.632Z,17.60
2018-05-05T01:04:36.628Z,17.10
2018-05-05T01:05:36.622Z,16.00
2018-05-05T01:06:36.613Z,18.20
2018-05-05T01:07:36.608Z,20.40
2018-05-05T01:08:36.605Z,19.10
2018-05-05T01:09:36.597Z,18.00
2018-05-05T01:10:36.592Z,16.70
2018-05-05T01:11:36.582Z,17.10
2018-05-05T01:12:36.582Z,16.20
2018-05-05T01:13:36.572Z,17.30
2018-05-05T01:14:36.563Z,17.00
2018-05-05T01:15:36.558Z,16.90
2018-05-05T01:16:36.554Z,16.30
2018-05-05T01:17:36.547Z,15.90
2018-05-05T01:18:36.540Z,16.30
2018-05-05T01:19:36.557Z,15.90
2018-05-05T01:20:36.528Z,15.70
2018-05-05T01:21:36.522Z,16.40
2018-05-05T01:22:36.519Z,16.70
2018-05-05T01:23:36.512Z,15.10
2018-05-05T01:24:36.503Z,15.00
2018-05-05T01:25:36.499Z,14.10
2018-05-05T01:26:36.494Z,14.40
2018-05-05T01:27:36.489Z,14.30
2018-05-05T01:28:36.480Z,13.70
2018-05-05T01:29:36.474Z,13.60
2018-05-05T01:30:36.466Z,13.10
2018-05-05T01:31:36.464Z,12.70
2018-05-05T01:32:36.454Z,13.40
2018-05-05T01:33:36.450Z,12.70
2018-05-05T01:34:36.443Z,11.40
2018-05-05T01:35:36.435Z,12.60
2018-05-05T01:36:36.431Z,11.60
2018-05-05T01:37:36.425Z,11.70
2018-05-05T01:38:36.417Z,11.00
2018-05-05T01:39:36.412Z,11.50
2018-05-05T01:40:36.408Z,10.80
2018-05-05T01:41:36.403Z,10.50
2018-05-05T01:42:36.392Z,11.10
2018-05-05T01:43:36.388Z,10.80
2018-05-05T01:44:36.380Z,10.10
2018-05-05T01:45:36.378Z,10.60
2018-05-05T01:46:36.370Z,10.20
2018-05-05T01:47:36.361Z,9.20
2018-05-05T01:48:36.354Z,10.30
2018-05-05T01:49:36.351Z,10.40
2018-05-05T01:50:36.345Z,9.40
2018-05-05T01:51:36.339Z,9.30
2018-05-05T01:52:36.331Z,9.20
2018-05-05T01:53:36.325Z,8.60
2018-05-05T01:54:36.321Z,8.10
2018-05-05T01:55:36.311Z,9.20
2018-05-05T01:56:36.307Z,8.70
2018-05-05T01:57:36.302Z,8.60
2018-05-05T01:58:36.292Z,8.00
2018-05-05T01:59:36.292Z,8.60
2018-05-05T02:00:36.282Z,8.10
2018-05-05T02:01:36.273Z,8.00
2018-05-05T02:02:36.269Z,8.10
2018-05-05T02:03:36.263Z,7.60
2018-05-05T02:04:36.256Z,7.30
2018-05-05T02:05:36.251Z,8.20
2018-05-05T02:06:36.242Z,8.10
2018-05-05T02:07:36.236Z,8.30
2018-05-05T02:08:36.230Z,7.70
2018-05-05T02:09:36.228Z,7.80
2018-05-05T02:10:36.221Z,7.70
2018-05-05T02:11:36.214Z,7.70
2018-05-05T02:12:36.209Z,8.00
2018-05-05T02:13:36.203Z,7.70
2018-05-05T02:14:36.196Z,7.30
2018-05-05T02:15:36.188Z,7.70
2018-05-05T02:16:36.182Z,7.50
2018-05-05T02:17:36.175Z,6.70
2018-05-05T02:18:36.175Z,7.20
2018-05-05T02:19:36.168Z,7.10
2018-05-05T02:20:36.158Z,7.00
2018-05-05T02:21:36.152Z,7.20
2018-05-05T02:22:36.147Z,7.00
2018-05-05T02:23:36.139Z,7.30
2018-05-05T02:24:36.133Z,6.90
2018-05-05T02:25:36.126Z,7.00
2018-05-05T02:26:36.119Z,7.00
2018-05-05T02:27:36.115Z,6.10
2018-05-05T02:28:36.108Z,6.60
2018-05-05T02:29:36.104Z,7.20
2018-05-05T02:30:36.095Z,7.10
2018-05-05T02:31:36.094Z,7.40
2018-05-05T02:32:36.084Z,7.00
2018-05-05T02:33:36.075Z,6.70
2018-05-05T02:34:36.075Z,7.10
2018-05-05T02:35:36.065Z,7.30
2018-05-05T02:36:36.057Z,6.90
2018-05-05T02:37:36.050Z,6.70
2018-05-05T02:38:36.053Z,7.20
2018-05-05T02:39:36.040Z,7.20
2018-05-05T02:40:36.038Z,6.40
2018-05-05T02:41:36.024Z,6.50
2018-05-05T02:42:36.017Z,6.80
2018-05-05T02:43:36.017Z,6.30
2018-05-05T02:44:36.005Z,6.10
2018-05-05T02:45:35.998Z,6.80
2018-05-05T02:46:35.994Z,6.80
2018-05-05T02:47:35.985Z,6.40
2018-05-05T02:48:35.979Z,6.40
2018-05-05T02:49:35.973Z,6.70
2018-05-05T02:50:35.965Z,6.40
2018-05-05T02:51:35.962Z,6.10
2018-05-05T02:52:35.954Z,6.60
2018-05-05T02:53:35.945Z,6.60
2018-05-05T02:54:35.939Z,6.50
2018-05-05T02:55:35.932Z,7.00
2018-05-05T02:56:35.926Z,6.70
2018-05-05T02:57:35.919Z,6.20
2018-05-05T02:58:35.912Z,6.90
2018-05-05T02:59:35.904Z,6.00
2018-05-05T03:00:35.897Z,6.90
2018-05-05T03:01:35.906Z,6.70
2018-05-05T03:02:35.888Z,6.60
2018-05-05T03:03:35.881Z,7.00
2018-05-05T03:04:35.876Z,6.40
2018-05-05T03:05:35.866Z,6.80
2018-05-05T03:06:35.858Z,7.10
2018-05-05T03:07:35.852Z,6.90
2018-05-05T03:08:35.850Z,6.80
2018-05-05T03:09:35.835Z,6.60
2018-05-05T03:10:35.840Z,6.50
2018-05-05T03:11:35.873Z,7.10
2018-05-05T03:12:35.815Z,6.60
2018-05-05T03:13:35.811Z,6.80
2018-05-05T03:14:35.803Z,6.90
2018-05-05T03:15:35.799Z,6.30
2018-05-05T03:16:35.789Z,6.80
2018-05-05T03:17:35.782Z,7.40
2018-05-05T03:18:35.775Z,7.30
2018-05-05T03:19:35.769Z,7.20
2018-05-05T03:20:35.761Z,6.70
2018-05-05T03:21:35.753Z,6.50
2018-05-05T03:22:35.748Z,7.40
2018-05-05T03:23:35.742Z,6.50
2018-05-05T03:24:35.735Z,7.00
2018-05-05T03:25:35.725Z,7.00
2018-05-05T03:26:35.720Z,6.80
2018-05-05T03:27:35.712Z,6.80
2018-05-05T03:28:35.704Z,7.20
2018-05-05T03:29:35.695Z,7.50
2018-05-05T03:30:35.689Z,6.80
2018-05-05T03:31:35.684Z,7.10
2018-05-05T03:32:35.673Z,6.90
2018-05-05T03:33:35.668Z,7.00
2018-05-05T03:34:35.661Z,6.80
2018-05-05T03:35:35.655Z,6.80
2018-05-05T03:36:35.649Z,7.20
2018-05-05T03:37:35.639Z,7.00
2018-05-05T03:38:35.630Z,6.50
2018-05-05T03:39:35.667Z,7.00
2018-05-05T03:40:35.616Z,6.90
2018-05-05T03:41:35.610Z,7.20
2018-05-05T03:42:35.603Z,7.40
2018-05-05T03:43:35.596Z,6.50
2018-05-05T03:44:35.590Z,7.30
2018-05-05T03:45:35.583Z,7.60
2018-05-05T03:46:35.573Z,7.20
2018-05-05T03:47:35.565Z,7.40
2018-05-05T03:48:35.558Z,7.30
2018-05-05T03:49:35.550Z,8.00
2018-05-05T03:50:35.541Z,7.60
2018-05-05T03:51:35.538Z,7.10
2018-05-05T03:52:35.528Z,7.00
2018-05-05T03:53:35.522Z,7.70
2018-05-05T03:54:35.516Z,7.10
2018-05-05T03:55:35.510Z,7.10
2018-05-05T03:56:35.500Z,7.20
2018-05-05T03:57:35.492Z,6.70
2018-05-05T03:58:35.485Z,7.20
2018-05-05T03:59:35.478Z,7.40
2018-05-05T04:00:35.469Z,7.60
2018-05-05T04:01:35.463Z,7.10
2018-05-05T04:02:35.456Z,7.50
2018-05-05T04:03:35.451Z,7.60
2018-05-05T04:04:35.441Z,6.80
2018-05-05T04:05:35.433Z,7.60
2018-05-05T04:06:35.428Z,7.20
2018-05-05T04:07:35.418Z,7.20
2018-05-05T04:08:35.412Z,7.50
2018-05-05T04:09:35.411Z,7.80
2018-05-05T04:10:35.399Z,8.10
2018-05-05T04:11:35.392Z,7.70
2018-05-05T04:12:35.380Z,7.60
2018-05-05T04:13:35.376Z,7.40
2018-05-05T04:14:35.368Z,7.80
2018-05-05T04:15:35.363Z,7.80
2018-05-05T04:16:35.352Z,7.50
2018-05-05T04:17:35.345Z,7.40
2018-05-05T04:18:35.338Z,7.60
2018-05-05T04:19:35.415Z,7.30
2018-05-05T04:20:35.320Z,8.10
2018-05-05T04:21:35.314Z,7.10
2018-05-05T04:22:35.308Z,7.70
2018-05-05T04:23:35.300Z,7.40
2018-05-05T04:24:35.296Z,7.70
2018-05-05T04:25:35.284Z,7.80
2018-05-05T04:26:35.277Z,7.40
2018-05-05T04:27:35.270Z,8.00
2018-05-05T04:28:35.265Z,8.00
2018-05-05T04:29:35.255Z,7.60
2018-05-05T04:30:35.247Z,8.00
2018-05-05T04:31:35.242Z,7.70
2018-05-05T04:32:35.232Z,7.60
2018-05-05T04:33:35.224Z,7.60
2018-05-05T04:34:35.218Z,8.00
2018-05-05T04:35:35.208Z,7.60
2018-05-05T04:36:35.199Z,7.60
2018-05-05T04:37:35.197Z,7.30
2018-05-05T04:38:35.193Z,7.50
2018-05-05T04:39:35.180Z,7.30
2018-05-05T04:40:35.170Z,7.50
2018-05-05T04:41:35.163Z,7.90
2018-05-05T04:42:35.155Z,7.90
2018-05-05T04:43:35.146Z,7.80
2018-05-05T04:44:35.248Z,8.00
2018-05-05T04:45:35.132Z,8.00
2018-05-05T04:46:35.126Z,7.70
2018-05-05T04:47:35.117Z,8.60
2018-05-05T04:48:35.109Z,7.60
2018-05-05T04:49:35.101Z,7.40
2018-05-05T04:50:35.095Z,7.70
2018-05-05T04:51:35.084Z,8.40
2018-05-05T04:52:35.105Z,8.10
2018-05-05T04:53:35.070Z,8.60
2018-05-05T04:54:35.066Z,8.00
2018-05-05T04:55:35.053Z,8.70
2018-05-05T04:56:35.049Z,8.00
2018-05-05T04:57:35.042Z,8.50
2018-05-05T04:58:35.033Z,8.30
2018-05-05T04:59:35.026Z,7.90
2018-05-05T05:00:35.017Z,9.10
2018-05-05T05:01:35.011Z,8.90
2018-05-05T05:02:35.002Z,8.30
2018-05-05T05:03:34.996Z,8.90
2018-05-05T05:04:34.989Z,8.20
2018-05-05T05:05:34.982Z,8.60
2018-05-05T05:06:34.975Z,8.50
2018-05-05T05:07:34.968Z,9.00
2018-05-05T05:08:34.956Z,8.50
2018-05-05T05:09:34.951Z,8.20
2018-05-05T05:10:34.939Z,8.30
2018-05-05T05:11:34.935Z,8.60
2018-05-05T05:12:34.924Z,8.60
2018-05-05T05:13:34.919Z,8.50
2018-05-05T05:14:34.911Z,8.60
2018-05-05T05:15:34.902Z,8.90
2018-05-05T05:16:34.894Z,8.50
2018-05-05T05:17:34.889Z,9.20
2018-05-05T05:18:34.881Z,9.10
2018-05-05T05:19:34.871Z,9.10
2018-05-05T05:20:34.865Z,8.90
2018-05-05T05:21:34.857Z,9.50
2018-05-05T05:22:34.852Z,9.30
2018-05-05T05:23:34.843Z,9.10
2018-05-05T05:24:34.832Z,9.10
2018-05-05T05:25:34.825Z,9.60
2018-05-05T05:26:34.819Z,9.10
2018-05-05T05:27:34.810Z,9.30
2018-05-05T05:28:34.801Z,9.20
2018-05-05T05:29:34.794Z,9.20
2018-05-05T05:30:34.789Z,9.30
2018-05-05T05:31:34.785Z,9.70
2018-05-05T05:32:34.775Z,9.80
2018-05-05T05:33:34.761Z,8.80
2018-05-05T05:34:34.757Z,9.50
2018-05-05T05:35:34.750Z,9.20
2018-05-05T05:36:34.741Z,8.90
2018-05-05T05:37:34.737Z,9.90
2018-05-05T05:38:34.725Z,8.80
2018-05-05T05:39:34.716Z,8.90
2018-05-05T05:40:34.709Z,10.00
2018-05-05T05:41:34.705Z,9.70
2018-05-05T05:42:34.697Z,9.80
2018-05-05T05:43:34.688Z,10.00
2018-05-05T05:44:34.680Z,9.80
2018-05-05T05:45:34.668Z,10.00
2018-05-05T05:46:34.702Z,9.90
2018-05-05T05:47:34.656Z,9.30
2018-05-05T05:48:34.646Z,9.90
2018-05-05T05:49:34.638Z,9.60
2018-05-05T05:50:34.635Z,9.60
2018-05-05T05:51:34.628Z,9.90
2018-05-05T05:52:34.615Z,9.50
2018-05-05T05:53:34.608Z,9.90
2018-05-05T05:54:34.599Z,10.10
2018-05-05T05:55:34.671Z,10.10
2018-05-05T05:56:34.590Z,9.40
2018-05-05T05:57:34.577Z,10.20
2018-05-05T05:58:34.569Z,10.10
2018-05-05T05:59:34.569Z,10.30
2018-05-05T06:00:34.555Z,9.80
2018-05-05T06:01:34.547Z,9.60
2018-05-05T06:02:34.542Z,10.10
2018-05-05T06:03:34.532Z,9.90
2018-05-05T06:04:34.524Z,9.50
2018-05-05T06:05:34.516Z,10.10
2018-05-05T06:06:34.513Z,9.90
2018-05-05T06:07:34.507Z,9.20
2018-05-05T06:08:34.492Z,9.90
2018-05-05T06:09:34.487Z,9.80
2018-05-05T06:10:34.481Z,8.80
2018-05-05T06:11:34.472Z,9.70
2018-05-05T06:12:34.465Z,9.80
2018-05-05T06:13:34.459Z,10.50
2018-05-05T06:14:34.449Z,9.80
2018-05-05T06:15:34.448Z,9.90
2018-05-05T06:16:34.433Z,9.40
2018-05-05T06:17:34.433Z,9.70
2018-05-05T06:18:34.421Z,9.20
2018-05-05T06:19:34.412Z,9.80
2018-05-05T06:20:34.407Z,10.40
2018-05-05T06:21:34.399Z,10.30
2018-05-05T06:22:34.395Z,10.40
2018-05-05T06:23:34.391Z,9.90
2018-05-05T06:24:34.400Z,11.30
2018-05-05T06:25:34.370Z,11.20
2018-05-05T06:26:34.363Z,11.00
2018-05-05T06:27:34.358Z,12.20
2018-05-05T06:28:34.351Z,11.50
2018-05-05T06:29:34.348Z,10.60
2018-05-05T06:30:34.335Z,11.10
2018-05-05T06:31:34.329Z,10.70
2018-05-05T06:32:34.325Z,10.70
2018-05-05T06:33:34.313Z,10.40
2018-05-05T06:34:34.309Z,10.50
2018-05-05T06:35:34.300Z,10.40
2018-05-05T06:36:34.293Z,10.20
2018-05-05T06:37:34.287Z,9.90
2018-05-05T06:38:34.282Z,11.00
2018-05-05T06:39:34.271Z,10.90
2018-05-05T06:40:34.268Z,10.10
2018-05-05T06:41:34.257Z,9.80
2018-05-05T06:42:34.252Z,10.00
2018-05-05T06:43:34.245Z,10.20
2018-05-05T06:44:34.236Z,9.80
2018-05-05T06:45:34.232Z,10.50
2018-05-05T06:46:34.223Z,10.10
2018-05-05T06:47:34.217Z,9.30
2018-05-05T06:48:34.212Z,10.80
2018-05-05T06:49:34.219Z,9.60
2018-05-05T06:50:34.196Z,10.00
2018-05-05T06:51:34.189Z,9.50
2018-05-05T06:52:34.188Z,9.20
2018-05-05T06:53:34.180Z,11.20
2018-05-05T06:54:34.171Z,10.30
2018-05-05T06:55:34.163Z,10.60
2018-05-05T06:56:34.158Z,9.60
2018-05-05T06:57:34.152Z,10.50
2018-05-05T06:58:34.145Z,9.80
2018-05-05T06:59:34.141Z,9.40
2018-05-05T07:00:34.132Z,10.00
2018-05-05T07:01:34.126Z,10.40
2018-05-05T07:02:34.117Z,10.30
2018-05-05T07:03:34.110Z,9.60
2018-05-05T07:04:34.105Z,9.90
2018-05-05T07:05:34.098Z,10.40
2018-05-05T07:06:34.094Z,9.40
2018-05-05T07:07:34.089Z,10.00
2018-05-05T07:08:34.080Z,9.80
2018-05-05T07:09:34.074Z,10.20
2018-05-05T07:10:34.067Z,10.50
2018-05-05T07:11:34.060Z,9.80
2018-05-05T07:12:34.053Z,10.40
2018-05-05T07:13:34.049Z,9.70
2018-05-05T07:14:34.045Z,10.20
2018-05-05T07:15:34.136Z,10.00
2018-05-05T07:16:34.027Z,10.20
2018-05-05T07:17:34.024Z,10.10
2018-05-05T07:18:34.019Z,10.50
2018-05-05T07:19:34.010Z,10.50
2018-05-05T07:20:34.003Z,9.30
2018-05-05T07:21:33.998Z,10.10
2018-05-05T07:22:33.992Z,10.10
2018-05-05T07:23:33.987Z,9.90
2018-05-05T07:24:33.980Z,10.50
2018-05-05T07:25:33.975Z,10.20
2018-05-05T07:26:33.967Z,10.20
2018-05-05T07:27:33.965Z,11.10
2018-05-05T07:28:33.957Z,10.50
2018-05-05T07:29:33.950Z,10.50
2018-05-05T07:30:33.941Z,9.80
2018-05-05T07:31:33.937Z,10.10
2018-05-05T07:32:33.932Z,10.40
2018-05-05T07:33:33.925Z,10.50
2018-05-05T07:34:33.919Z,10.20
2018-05-05T07:35:33.916Z,10.70
2018-05-05T07:36:33.907Z,10.30
2018-05-05T07:37:33.901Z,10.50
2018-05-05T07:38:33.898Z,10.70
2018-05-05T07:39:33.888Z,11.00
2018-05-05T07:40:33.886Z,10.90
2018-05-05T07:41:33.875Z,10.50
2018-05-05T07:42:33.873Z,10.50
2018-05-05T07:43:33.869Z,10.40
2018-05-05T07:44:33.861Z,10.30
2018-05-05T07:45:33.856Z,10.80
2018-05-05T07:46:33.849Z,10.00
2018-05-05T07:47:33.846Z,10.40
2018-05-05T07:48:33.840Z,9.90
2018-05-05T07:49:33.832Z,11.00
2018-05-05T07:50:33.830Z,10.60
2018-05-05T07:51:33.825Z,10.50
2018-05-05T07:52:33.816Z,10.90
2018-05-05T07:53:33.812Z,11.10
2018-05-05T07:54:33.803Z,10.80
2018-05-05T07:55:33.803Z,10.90
2018-05-05T07:56:33.790Z,11.30
2018-05-05T07:57:33.786Z,11.30
2018-05-05T07:58:33.782Z,10.70
2018-05-05T07:59:33.792Z,11.00
2018-05-05T08:00:33.768Z,10.50
2018-05-05T08:01:33.762Z,10.90
2018-05-05T08:02:33.759Z,10.70
2018-05-05T08:03:33.752Z,11.80
2018-05-05T08:04:33.745Z,11.20
2018-05-05T08:05:33.741Z,10.80
2018-05-05T08:06:33.739Z,11.20
2018-05-05T08:07:33.734Z,11.10
2018-05-05T08:08:33.739Z,11.50
2018-05-05T08:09:33.718Z,10.80
2018-05-05T08:10:33.711Z,11.10
2018-05-05T08:11:33.714Z,11.20
2018-05-05T08:12:33.700Z,12.20
2018-05-05T08:13:33.698Z,10.60
2018-05-05T08:14:33.689Z,10.70
2018-05-05T08:15:33.684Z,11.60
2018-05-05T08:16:33.677Z,10.70
2018-05-05T08:17:33.676Z,10.40
2018-05-05T08:18:33.667Z,11.90
2018-05-05T08:19:33.662Z,10.90
2018-05-05T08:20:33.659Z,11.30
2018-05-05T08:21:33.653Z,11.20
2018-05-05T08:22:33.648Z,11.90
2018-05-05T08:23:33.642Z,11.10
2018-05-05T08:24:33.634Z,11.80
2018-05-05T08:25:33.629Z,11.60
2018-05-05T08:26:33.629Z,11.60
2018-05-05T08:27:33.618Z,12.70
2018-05-05T08:28:33.611Z,11.90
2018-05-05T08:29:33.612Z,11.50
2018-05-05T08:30:33.603Z,11.90
2018-05-05T08:31:33.598Z,11.20
2018-05-05T08:32:33.592Z,11.80
2018-05-05T08:33:33.587Z,12.10
2018-05-05T08:34:33.612Z,12.30
2018-05-05T08:35:33.612Z,12.00
2018-05-05T08:36:33.573Z,11.40
2018-05-05T08:37:33.577Z,12.20
2018-05-05T08:38:33.560Z,12.00
2018-05-05T08:39:33.557Z,11.80
2018-05-05T08:40:33.549Z,12.10
2018-05-05T08:41:33.544Z,12.20
2018-05-05T08:42:33.540Z,13.10
2018-05-05T08:43:33.538Z,12.70
2018-05-05T08:44:33.534Z,12.90
2018-05-05T08:45:33.531Z,11.90
2018-05-05T08:46:33.532Z,12.30
2018-05-05T08:47:33.524Z,12.30
2018-05-05T08:48:33.522Z,12.20
2018-05-05T08:49:33.517Z,12.00
2018-05-05T08:50:33.511Z,12.90
2018-05-05T08:51:33.504Z,13.10
2018-05-05T08:52:33.589Z,12.90
2018-05-05T08:53:33.491Z,13.30
2018-05-05T08:54:33.489Z,14.00
2018-05-05T08:55:33.488Z,12.90
2018-05-05T08:56:33.482Z,13.30
2018-05-05T08:57:33.505Z,13.40
2018-05-05T08:58:33.473Z,13.00
2018-05-05T08:59:33.468Z,12.80
2018-05-05T09:00:33.466Z,12.40
2018-05-05T09:01:33.457Z,13.40
2018-05-05T09:02:33.455Z,13.60
2018-05-05T09:03:33.453Z,12.50
2018-05-05T09:04:33.447Z,12.40
2018-05-05T09:05:33.441Z,13.00
2018-05-05T09:06:33.447Z,13.10
2018-05-05T09:07:33.439Z,13.60
2018-05-05T09:08:33.435Z,12.80
2018-05-05T09:09:33.426Z,12.70
2018-05-05T09:10:33.425Z,13.20
2018-05-05T09:11:33.422Z,12.90
2018-05-05T09:12:33.419Z,13.30
2018-05-05T09:13:33.416Z,13.20
2018-05-05T09:14:33.414Z,13.30
2018-05-05T09:15:33.405Z,13.30
2018-05-05T09:16:33.400Z,12.90
2018-05-05T09:17:33.409Z,13.00
2018-05-05T09:18:33.394Z,12.60
2018-05-05T09:19:33.390Z,13.10
2018-05-05T09:20:33.387Z,12.80
2018-05-05T09:21:33.381Z,13.40
2018-05-05T09:22:33.379Z,13.70
2018-05-05T09:23:33.376Z,13.40
2018-05-05T09:24:33.370Z,13.10
2018-05-05T09:25:33.366Z,14.20
2018-05-05T09:26:33.371Z,14.00
2018-05-05T09:27:33.360Z,13.60
2018-05-05T09:28:33.356Z,13.50
2018-05-05T09:29:33.354Z,12.80
2018-05-05T09:30:33.352Z,13.40
2018-05-05T09:31:33.347Z,13.40
2018-05-05T09:32:33.346Z,13.70
2018-05-05T09:33:33.340Z,13.50
2018-05-05T09:34:33.339Z,13.00
2018-05-05T09:35:33.333Z,13.50
2018-05-05T09:36:33.329Z,14.20
2018-05-05T09:37:33.328Z,13.50
2018-05-05T09:38:33.324Z,12.30
2018-05-05T09:39:33.322Z,12.20
2018-05-05T09:40:33.316Z,13.10
2018-05-05T09:41:33.315Z,12.70
2018-05-05T09:42:33.313Z,13.60
2018-05-05T09:43:33.314Z,13.00
2018-05-05T09:44:33.307Z,13.30
2018-05-05T09:45:33.303Z,13.50
2018-05-05T09:46:33.298Z,13.60
2018-05-05T09:47:33.297Z,14.10
2018-05-05T09:48:33.294Z,14.70
2018-05-05T09:49:33.291Z,13.90
2018-05-05T09:50:33.293Z,12.50
2018-05-05T09:51:33.287Z,12.60
2018-05-05T09:52:33.282Z,13.20
2018-05-05T09:53:33.280Z,13.60
2018-05-05T09:54:33.276Z,13.50
2018-05-05T09:55:33.279Z,13.10
2018-05-05T09:56:33.275Z,13.80
2018-05-05T09:57:33.266Z,13.40
2018-05-05T09:58:33.268Z,13.30
2018-05-05T09:59:33.262Z,13.20
2018-05-05T10:00:33.259Z,14.00
2018-05-05T10:01:33.256Z,13.20
2018-05-05T10:02:33.252Z,13.10
2018-05-05T10:03:33.256Z,13.10
2018-05-05T10:04:33.250Z,12.20
2018-05-05T10:05:33.249Z,12.10
2018-05-05T10:06:33.250Z,13.00
2018-05-05T10:07:33.245Z,13.40
2018-05-05T10:08:33.237Z,13.50
2018-05-05T10:09:33.235Z,13.70
2018-05-05T10:10:33.235Z,14.20
2018-05-05T10:11:33.233Z,14.90
2018-05-05T10:12:33.228Z,14.10
2018-05-05T10:13:33.224Z,13.90
2018-05-05T10:14:33.223Z,13.20
2018-05-05T10:15:33.222Z,12.40
2018-05-05T10:16:33.221Z,14.00
2018-05-05T10:17:33.221Z,13.60
2018-05-05T10:18:33.218Z,13.10
2018-05-05T10:19:33.215Z,13.40
2018-05-05T10:20:33.208Z,13.40
2018-05-05T10:21:33.208Z,14.10
2018-05-05T10:22:33.206Z,13.70
2018-05-05T10:23:33.204Z,12.70
2018-05-05T10:24:33.200Z,14.20
2018-05-05T10:25:33.201Z,14.20
2018-05-05T10:26:33.195Z,14.10
2018-05-05T10:27:33.194Z,13.60
2018-05-05T10:28:33.190Z,14.10
2018-05-05T10:29:33.191Z,14.70
2018-05-05T10:30:33.187Z,14.40
2018-05-05T10:31:33.265Z,13.40
2018-05-05T10:32:33.182Z,13.80
2018-05-05T10:33:33.180Z,12.60
2018-05-05T10:34:33.177Z,13.40
2018-05-05T10:35:33.174Z,13.50
2018-05-05T10:36:33.174Z,13.60
2018-05-05T10:37:33.171Z,13.10
2018-05-05T10:38:33.171Z,12.90
2018-05-05T10:39:33.167Z,12.90
2018-05-05T10:40:33.165Z,12.40
2018-05-05T10:41:33.162Z,13.10
2018-05-05T10:42:33.159Z,11.90
2018-05-05T10:43:33.159Z,13.00
2018-05-05T10:44:33.243Z,12.80
2018-05-05T10:45:33.156Z,13.30
2018-05-05T10:46:33.152Z,12.40
2018-05-05T10:47:33.167Z,12.30
2018-05-05T10:48:33.149Z,12.80
2018-05-05T10:49:33.151Z,12.50
2018-05-05T10:50:33.146Z,12.40
2018-05-05T10:51:33.143Z,13.20
2018-05-05T10:52:33.138Z,13.00
2018-05-05T10:53:33.139Z,12.30
2018-05-05T10:54:33.133Z,13.10
2018-05-05T10:55:33.142Z,13.10
2018-05-05T10:56:33.132Z,12.00
2018-05-05T10:57:33.135Z,12.60
2018-05-05T10:58:33.126Z,12.30
2018-05-05T10:59:33.129Z,12.40
2018-05-05T11:00:33.122Z,12.80
2018-05-05T11:01:33.137Z,12.30
2018-05-05T11:02:33.124Z,11.70
2018-05-05T11:03:33.116Z,11.70
2018-05-05T11:04:33.114Z,12.00
2018-05-05T11:05:33.111Z,12.40
2018-05-05T11:06:33.110Z,11.60
2018-05-05T11:07:33.105Z,11.60
2018-05-05T11:08:33.174Z,12.00
2018-05-05T11:09:33.101Z,11.70
2018-05-05T11:10:33.099Z,10.70
2018-05-05T11:11:33.105Z,10.90
2018-05-05T11:12:33.098Z,9.20
2018-05-05T11:13:33.092Z,11.30
2018-05-05T11:14:33.090Z,11.30
2018-05-05T11:15:33.094Z,10.50
2018-05-05T11:16:33.087Z,10.90
2018-05-05T11:17:33.091Z,11.20
2018-05-05T11:18:33.089Z,11.50
2018-05-05T11:19:33.082Z,10.80
2018-05-05T11:20:33.085Z,11.30
2018-05-05T11:21:33.075Z,11.50
2018-05-05T11:22:33.076Z,11.00
2018-05-05T11:23:33.074Z,9.90
2018-05-05T11:24:33.069Z,10.40
2018-05-05T11:25:33.068Z,10.50
2018-05-05T11:26:33.072Z,11.30
2018-05-05T11:27:33.067Z,10.80
2018-05-05T11:28:33.063Z,10.90
2018-05-05T11:29:33.067Z,9.90
2018-05-05T11:30:33.062Z,11.40
2018-05-05T11:31:33.061Z,10.70
2018-05-05T11:32:33.058Z,11.90
2018-05-05T11:33:33.056Z,10.10
2018-05-05T11:34:33.056Z,10.70
2018-05-05T11:35:33.052Z,10.60
2018-05-05T11:36:33.054Z,10.40
2018-05-05T11:37:33.048Z,9.70
2018-05-05T11:38:33.046Z,10.30
2018-05-05T11:39:33.044Z,10.30
2018-05-05T11:40:33.045Z,10.00
2018-05-05T11:41:33.044Z,10.00
2018-05-05T11:42:33.041Z,9.70
2018-05-05T11:43:33.041Z,10.30
2018-05-05T11:44:33.063Z,10.60
2018-05-05T11:45:33.035Z,10.70
2018-05-05T11:46:33.035Z,10.40
2018-05-05T11:47:33.030Z,10.70
2018-05-05T11:48:33.032Z,10.40
2018-05-05T11:49:33.028Z,10.50
2018-05-05T11:50:33.056Z,10.60
2018-05-05T11:51:33.034Z,10.30
2018-05-05T11:52:33.025Z,9.30
2018-05-05T11:53:33.023Z,9.40
2018-05-05T11:54:33.019Z,9.50
2018-05-05T11:55:33.018Z,10.30
2018-05-05T11:56:33.017Z,10.50
2018-05-05T11:57:33.017Z,10.50
2018-05-05T11:58:33.016Z,10.30
2018-05-05T11:59:33.014Z,10.30
2018-05-05T12:00:33.011Z,9.60
2018-05-05T12:01:33.076Z,10.10
2018-05-05T12:02:33.008Z,9.40
2018-05-05T12:03:33.008Z,10.40
2018-05-05T12:04:33.003Z,10.00
2018-05-05T12:05:33.003Z,10.20
2018-05-05T12:06:33.002Z,10.10
2018-05-05T12:07:32.999Z,10.30
2018-05-05T12:08:32.997Z,11.50
2018-05-05T12:09:32.996Z,9.90
2018-05-05T12:10:33.000Z,10.40
2018-05-05T12:11:32.997Z,10.30
2018-05-05T12:12:32.993Z,9.30
2018-05-05T12:13:33.001Z,10.50
2018-05-05T12:14:32.989Z,11.30
2018-05-05T12:15:32.989Z,11.40
2018-05-05T12:16:32.992Z,10.70
2018-05-05T12:17:32.984Z,10.50
2018-05-05T12:18:32.984Z,11.00
2018-05-05T12:19:32.983Z,10.20
2018-05-05T12:20:32.980Z,11.30
2018-05-05T12:21:32.979Z,11.00
2018-05-05T12:22:32.979Z,11.50
2018-05-05T12:23:32.983Z,11.10
2018-05-05T12:24:32.976Z,10.70
2018-05-05T12:25:32.973Z,12.10
2018-05-05T12:26:32.973Z,11.60
2018-05-05T12:27:32.974Z,11.40
2018-05-05T12:28:32.969Z,11.30
2018-05-05T12:29:33.027Z,11.90
2018-05-05T12:30:32.965Z,11.00
2018-05-05T12:31:32.963Z,11.10
2018-05-05T12:32:32.960Z,10.90
2018-05-05T12:33:32.961Z,10.60
2018-05-05T12:34:32.962Z,11.70
2018-05-05T12:35:32.959Z,12.00
2018-05-05T12:36:32.955Z,11.30
2018-05-05T12:37:32.956Z,11.80
2018-05-05T12:38:32.952Z,10.80
2018-05-05T12:39:32.950Z,11.50
2018-05-05T12:40:32.947Z,11.10
2018-05-05T12:41:32.950Z,10.90
2018-05-05T12:42:32.945Z,11.00
2018-05-05T12:43:32.954Z,11.30
2018-05-05T12:44:33.034Z,10.50
2018-05-05T12:45:32.938Z,11.80
2018-05-05T12:46:32.938Z,10.10
2018-05-05T12:47:32.940Z,11.10
2018-05-05T12:48:32.932Z,10.90
2018-05-05T12:49:32.932Z,10.40
2018-05-05T12:50:32.930Z,11.80
2018-05-05T12:51:32.928Z,10.90
2018-05-05T12:52:32.928Z,12.20
2018-05-05T12:53:32.924Z,11.70
2018-05-05T12:54:32.923Z,10.60
2018-05-05T12:55:32.924Z,9.70
2018-05-05T12:56:32.922Z,10.00
2018-05-05T12:57:32.918Z,9.90
2018-05-05T12:58:32.919Z,10.00
2018-05-05T12:59:32.920Z,10.20
2018-05-05T13:00:32.915Z,11.30
2018-05-05T13:01:32.913Z,9.70
2018-05-05T13:02:32.911Z,9.60